Time;durP1;ratioP1;P1;durP2;ratioP2;P2;SDS_P1;SDS_P2;PMS_P1;PMS_P2;Temp;Humidity;BMP_temperature;BMP_pressure;BME280_temperature;BME280_humidity;BME280_pressure;Samples;Min_cycle;Max_cycle;Signal;HPM_P1;HPM_P2
2023/06/04 00:00:58;;;;;;;5.22;1.90;;;;;;;15.65;39.28;100092.06;7820776;32;38906;-79
2023/06/04 00:05:14;;;;;;;3.20;1.77;;;;;;;15.46;39.25;100083.81;7822088;31;40092;-80
2023/06/04 00:09:31;;;;;;;5.57;1.60;;;;;;;15.32;40.81;100078.25;7847799;31;38052;-79
2023/06/04 00:13:47;;;;;;;6.20;2.10;;;;;;;15.61;38.86;100080.03;7847900;31;37722;-81
2023/06/04 00:18:04;;;;;;;3.87;1.85;;;;;;;15.51;39.91;100083.75;7848070;31;39049;-79
2023/06/04 00:22:20;;;;;;;2.55;1.60;;;;;;;15.54;40.35;100079.59;7846458;31;40123;-79
2023/06/04 00:26:36;;;;;;;2.53;1.65;;;;;;;15.97;40.67;100076.75;7847776;31;37965;-79
2023/06/04 00:30:53;;;;;;;4.00;1.70;;;;;;;15.81;41.32;100067.09;7847685;31;37739;-80
2023/06/04 00:35:09;;;;;;;5.60;2.03;;;;;;;16.03;38.50;100070.03;7847680;31;39345;-80
2023/06/04 00:39:25;;;;;;;3.58;1.42;;;;;;;15.95;39.07;100065.22;7847648;31;39645;-79
2023/06/04 00:43:45;;;;;;;5.55;1.73;;;;;;;16.20;38.83;100050.22;7847542;31;37999;-80
2023/06/04 00:48:02;;;;;;;3.22;1.87;;;;;;;16.07;38.44;100054.53;7847712;31;36645;-79
2023/06/04 00:52:18;;;;;;;2.05;1.42;;;;;;;16.14;36.97;100041.25;7847565;31;39260;-80
2023/06/04 00:56:37;;;;;;;4.25;1.90;;;;;;;16.11;38.24;100047.34;7847456;31;39907;-80
2023/06/04 01:00:55;;;;;;;4.70;1.55;;;;;;;16.00;39.37;100047.81;7847511;31;38137;-80
2023/06/04 01:05:36;;;;;;;3.72;1.95;;;;;;;15.90;38.85;100057.06;7820261;31;37752;-79
2023/06/04 01:09:53;;;;;;;3.33;2.03;;;;;;;15.95;42.11;100062.47;7819882;32;39940;-80
2023/06/04 01:14:10;;;;;;;3.95;2.03;;;;;;;15.82;42.08;100052.25;7818663;32;40850;-80
2023/06/04 01:18:28;;;;;;;3.50;1.85;;;;;;;15.73;42.42;100052.09;7819711;32;38087;-79
2023/06/04 01:22:59;;;;;;;5.82;1.75;;;;;;;15.84;41.51;100055.53;7819746;32;35900;-80
2023/06/04 01:27:17;;;;;;;2.53;1.55;;;;;;;15.64;40.85;100040.94;7819700;32;39300;-80
2023/06/04 01:31:33;;;;;;;2.00;1.55;;;;;;;15.85;39.37;100040.63;7819305;32;39959;-80
2023/06/04 01:35:50;;;;;;;2.58;1.60;;;;;;;15.88;38.86;100040.03;7819373;32;38551;-79
2023/06/04 01:40:08;;;;;;;1.87;1.25;;;;;;;15.67;39.59;100045.03;7819412;32;36944;-79
2023/06/04 01:44:24;;;;;;;3.72;1.80;;;;;;;15.74;39.30;100051.78;7820247;31;39324;-80
2023/06/04 01:48:41;;;;;;;2.80;1.45;;;;;;;15.84;39.16;100050.03;7819328;32;39937;-80
2023/06/04 01:52:57;;;;;;;4.65;1.48;;;;;;;15.77;39.09;100051.22;7819122;32;38047;-80
2023/06/04 01:57:13;;;;;;;6.20;1.60;;;;;;;15.86;38.67;100059.59;7819956;31;36654;-79
2023/06/04 02:01:30;;;;;;;5.78;1.70;;;;;;;15.92;38.44;100057.59;7819191;32;40148;-80
2023/06/04 02:05:46;;;;;;;3.85;1.92;;;;;;;15.86;38.54;100054.09;7818973;32;40892;-80
2023/06/04 02:10:03;;;;;;;6.85;1.80;;;;;;;15.65;38.85;100056.31;7818843;32;38711;-79
2023/06/04 02:14:19;;;;;;;1.58;1.30;;;;;;;15.61;39.67;100057.22;7818719;32;37077;-80
2023/06/04 02:18:36;;;;;;;4.53;1.80;;;;;;;15.82;38.98;100047.56;7818824;32;39859;-80
2023/06/04 02:22:53;;;;;;;3.03;1.62;;;;;;;15.76;38.33;100049.59;7818726;32;41034;-80
2023/06/04 02:27:10;;;;;;;3.40;1.70;;;;;;;15.48;39.10;100051.38;7818115;32;38652;-80
2023/06/04 02:31:27;;;;;;;3.70;1.80;;;;;;;15.47;39.60;100058.00;7818223;32;36954;-80
2023/06/04 02:35:43;;;;;;;2.17;1.60;;;;;;;15.52;40.00;100059.81;7818361;32;39440;-80
2023/06/04 02:39:59;;;;;;;4.43;1.50;;;;;;;15.59;40.12;100052.00;7818351;32;39672;-80
2023/06/04 02:44:16;;;;;;;4.28;1.50;;;;;;;15.46;40.27;100050.03;7842339;31;38129;-80
2023/06/04 02:48:32;;;;;;;8.23;1.73;;;;;;;15.40;40.37;100052.88;7845626;31;36889;-80
2023/06/04 02:52:49;;;;;;;4.05;1.50;;;;;;;15.37;40.38;100041.66;7845390;31;39122;-79
2023/06/04 02:57:06;;;;;;;2.12;1.62;;;;;;;15.36;40.17;100051.81;7845350;31;39630;-80
2023/06/04 03:01:23;;;;;;;4.05;1.60;;;;;;;15.34;40.42;100059.53;7845205;31;37899;-80
2023/06/04 03:05:40;;;;;;;2.42;1.60;;;;;;;15.14;41.46;100065.31;7845276;31;37538;-79
2023/06/04 03:09:57;;;;;;;4.47;1.60;;;;;;;15.22;42.03;100059.16;7845134;31;39138;-79
2023/06/04 03:14:13;;;;;;;4.53;1.60;;;;;;;15.11;42.76;100065.91;7844975;31;39991;-79
2023/06/04 03:18:29;;;;;;;3.15;1.42;;;;;;;15.05;43.82;100075.34;7844782;31;39190;-78
2023/06/04 03:22:46;;;;;;;4.57;1.90;;;;;;;15.30;42.40;100063.19;7844658;31;37588;-79
2023/06/04 03:27:03;;;;;;;6.82;2.10;;;;;;;15.39;41.66;100061.41;7844637;31;39945;-79
2023/06/04 03:31:20;;;;;;;3.28;1.50;;;;;;;15.28;43.86;100068.16;7844386;31;40828;-79
2023/06/04 03:35:36;;;;;;;2.65;1.52;;;;;;;15.10;45.11;100075.28;7838197;31;38715;-79
2023/06/04 03:39:53;;;;;;;8.90;1.67;;;;;;;15.55;42.83;100065.53;7819967;32;36603;-80
2023/06/04 03:44:09;;;;;;;3.55;1.58;;;;;;;15.46;41.59;100063.78;7819781;32;39183;-80
2023/06/04 03:48:25;;;;;;;2.55;1.55;;;;;;;15.58;41.71;100064.13;7820838;32;39764;-78
2023/06/04 03:52:42;;;;;;;3.53;1.50;;;;;;;15.74;41.44;100065.50;7820613;32;38134;-80
2023/06/04 03:56:58;;;;;;;5.87;1.87;;;;;;;15.82;42.06;100077.00;7820689;32;37722;-79
2023/06/04 04:01:15;;;;;;;3.28;1.60;;;;;;;15.95;43.50;100084.47;7820685;32;39176;-79
2023/06/04 04:05:32;;;;;;;2.05;1.48;;;;;;;15.70;44.22;100082.94;7820532;32;39884;-79
2023/06/04 04:09:48;;;;;;;7.57;1.80;;;;;;;15.90;42.53;100084.53;7820471;32;38847;-79
2023/06/04 04:14:04;;;;;;;5.93;1.50;;;;;;;15.96;44.10;100092.41;7820280;32;37618;-79
2023/06/04 04:18:21;;;;;;;1.83;1.30;;;;;;;15.89;45.21;100094.72;7820467;32;40056;-79
2023/06/04 04:22:42;;;;;;;3.40;1.70;;;;;;;16.09;43.81;100093.59;7820385;32;40668;-80
2023/06/04 04:26:58;;;;;;;3.08;1.75;;;;;;;16.08;45.41;100093.88;7820215;32;38779;-79
2023/06/04 04:31:15;;;;;;;2.67;1.55;;;;;;;16.36;43.46;100082.94;7834956;31;36911;-79
2023/06/04 04:35:32;;;;;;;4.62;1.83;;;;;;;16.47;41.58;100085.19;7847719;31;38949;-79
2023/06/04 04:39:51;;;;;;;2.58;1.62;;;;;;;16.46;41.32;100096.50;7847627;31;39953;-80
2023/06/04 04:44:08;;;;;;;2.22;1.58;;;;;;;16.43;41.37;100089.66;7847672;31;37987;-79
2023/06/04 04:48:25;;;;;;;2.17;1.40;;;;;;;16.76;41.10;100097.84;7847579;31;37656;-78
2023/06/04 04:52:42;;;;;;;2.62;1.50;;;;;;;16.55;40.42;100097.44;7847494;31;40070;-80
2023/06/04 04:56:58;;;;;;;2.55;1.45;;;;;;;16.95;38.39;100103.28;7847396;31;40755;-79
2023/06/04 05:01:28;;;;;;;4.53;1.58;;;;;;;16.94;38.85;100098.09;7847476;31;37973;-67
2023/06/04 05:05:45;;;;;;;21.05;2.08;;;;;;;17.21;38.32;100113.75;7847393;31;36995;-67
2023/06/04 05:10:01;;;;;;;3.05;1.50;;;;;;;17.17;39.11;100113.56;7847332;31;38924;-67
2023/06/04 05:14:18;;;;;;;3.17;1.58;;;;;;;17.53;41.02;100120.25;7847136;31;40843;-67
2023/06/04 05:18:40;;;;;;;1.80;1.35;;;;;;;17.85;41.63;100105.44;7847148;31;38096;-67
2023/06/04 05:22:56;;;;;;;4.43;1.70;;;;;;;18.08;41.24;100103.50;7847282;31;36890;-68
2023/06/04 05:27:13;;;;;;;1.95;1.40;;;;;;;18.46;40.74;100105.03;7821036;31;39311;-68
2023/06/04 05:31:33;;;;;;;11.82;1.58;;;;;;;18.57;40.18;100087.03;7819326;32;41640;-68
2023/06/04 05:35:49;;;;;;;3.15;1.37;;;;;;;18.98;39.90;100091.44;7819361;32;37937;-67
2023/06/04 05:40:07;;;;;;;2.78;1.35;;;;;;;19.06;40.05;100087.91;7839447;31;37447;-71
2023/06/04 05:44:23;;;;;;;4.47;1.90;;;;;;;19.32;38.80;100100.94;7846920;31;40069;-68
2023/06/04 05:48:39;;;;;;;3.42;1.50;;;;;;;19.39;38.44;100101.28;7846118;31;40921;-69
2023/06/04 05:52:56;;;;;;;4.35;1.65;;;;;;;19.40;36.76;100102.09;7846589;31;38487;-68
2023/06/04 05:57:12;;;;;;;4.40;1.52;;;;;;;19.44;37.09;100105.84;7846672;31;37633;-68
2023/06/04 06:01:29;;;;;;;2.80;1.50;;;;;;;19.40;37.64;100113.94;7846076;31;39157;-68
2023/06/04 06:05:46;;;;;;;3.42;1.55;;;;;;;19.31;35.55;100129.72;7846513;31;40549;-67
2023/06/04 06:10:03;;;;;;;4.72;1.70;;;;;;;19.41;35.56;100137.72;7846388;31;37602;-68
2023/06/04 06:14:19;;;;;;;2.78;1.48;;;;;;;19.41;36.51;100126.66;7846355;31;36961;-67
2023/06/04 06:18:35;;;;;;;4.85;1.55;;;;;;;19.39;38.31;100123.41;7845741;31;40064;-79
2023/06/04 06:22:52;;;;;;;4.20;1.55;;;;;;;19.37;38.36;100125.69;7846117;31;40004;-76
2023/06/04 06:27:08;;;;;;;7.03;1.55;;;;;;;19.56;37.58;100138.38;7846095;31;37874;-78
2023/06/04 06:31:25;;;;;;;2.72;1.62;;;;;;;19.61;38.71;100132.69;7846032;31;36932;-78
2023/06/04 06:35:43;;;;;;;6.15;1.55;;;;;;;19.79;37.42;100128.00;7845900;31;39279;-70
2023/06/04 06:39:59;;;;;;;2.55;1.30;;;;;;;19.92;36.34;100129.81;7845747;31;39979;-69
2023/06/04 06:44:16;;;;;;;21.70;2.33;;;;;;;20.25;36.80;100132.84;7845762;31;38499;-78
2023/06/04 06:48:32;;;;;;;4.32;1.80;;;;;;;20.39;36.45;100134.63;7843875;31;37900;-78
2023/06/04 06:52:49;;;;;;;3.67;1.48;;;;;;;20.45;36.41;100136.88;7845585;31;39912;-78
2023/06/04 06:57:08;;;;;;;5.32;1.55;;;;;;;20.40;33.50;100147.31;7845346;31;40512;-78
2023/06/04 07:01:25;;;;;;;2.55;1.55;;;;;;;20.52;34.39;100150.19;7844701;31;38897;-79
2023/06/04 07:05:41;;;;;;;4.60;1.90;;;;;;;20.39;33.96;100142.94;7845460;31;37604;-79
2023/06/04 07:09:57;;;;;;;1.87;1.42;;;;;;;20.16;34.37;100151.44;7843852;31;39693;-78
2023/06/04 07:14:15;;;;;;;3.42;1.52;;;;;;;19.91;35.06;100152.25;7847127;31;39732;-78
2023/06/04 07:18:32;;;;;;;3.47;1.67;;;;;;;20.11;35.32;100151.59;7847960;31;37966;-78
2023/06/04 07:22:48;;;;;;;5.03;1.75;;;;;;;19.88;37.24;100162.81;7847928;31;36902;-78
2023/06/04 07:27:12;;;;;;;2.40;1.60;;;;;;;19.82;38.25;100158.59;7846995;31;39261;-77
2023/06/04 07:31:28;;;;;;;4.12;1.60;;;;;;;19.94;38.35;100157.97;7844849;31;39848;-78
2023/06/04 07:35:45;;;;;;;2.60;1.55;;;;;;;20.07;38.36;100158.91;7848463;31;38008;-80
2023/06/04 07:40:02;;;;;;;3.45;1.77;;;;;;;20.19;38.02;100166.56;7847382;31;38867;-80
2023/06/04 07:44:18;;;;;;;6.57;1.87;;;;;;;20.39;37.25;100170.62;7841890;31;39208;-80
2023/06/04 07:48:35;;;;;;;4.07;1.80;;;;;;;20.42;36.35;100170.78;7842145;31;40828;-79
2023/06/04 07:52:51;;;;;;;5.97;1.85;;;;;;;20.55;37.32;100165.34;7835881;31;38103;-79
2023/06/04 07:57:08;;;;;;;4.20;1.40;;;;;;;20.61;35.35;100173.16;7838627;31;37388;-81
2023/06/04 08:01:25;;;;;;;7.70;1.80;;;;;;;20.79;35.69;100175.91;7844611;31;39997;-81
2023/06/04 08:05:42;;;;;;;6.18;2.10;;;;;;;20.59;36.88;100178.22;7839795;31;39928;-79
2023/06/04 08:09:58;;;;;;;11.55;1.90;;;;;;;20.84;36.01;100175.72;7839689;31;38154;-79
2023/06/04 08:14:15;;;;;;;5.10;1.48;;;;;;;21.00;36.12;100182.34;7842548;31;37804;-79
2023/06/04 08:18:33;;;;;;;6.12;1.80;;;;;;;21.04;34.66;100182.50;7844183;31;39979;-80
2023/06/04 08:22:50;;;;;;;9.07;1.90;;;;;;;21.14;35.35;100178.53;7846871;31;40677;-80
2023/06/04 08:27:08;;;;;;;3.20;1.50;;;;;;;21.22;34.86;100179.66;7828435;31;37914;-81
2023/06/04 08:31:24;;;;;;;5.03;1.83;;;;;;;21.14;35.45;100181.31;7839832;31;38696;-79
2023/06/04 08:35:41;;;;;;;4.72;1.40;;;;;;;21.42;34.77;100194.69;7829580;31;39458;-79
2023/06/04 08:39:57;;;;;;;3.15;1.50;;;;;;;21.48;36.21;100179.53;7819816;31;39908;-80
2023/06/04 08:44:16;;;;;;;14.82;2.35;;;;;;;21.42;38.71;100186.37;7819645;32;37740;-79
2023/06/04 08:48:32;;;;;;;3.60;1.45;;;;;;;21.67;36.87;100179.87;7817227;32;36080;-79
2023/06/04 08:52:52;;;;;;;2.00;1.17;;;;;;;21.70;35.31;100197.81;7818379;31;39243;-79
2023/06/04 08:57:10;;;;;;;5.40;1.70;;;;;;;21.88;35.67;100185.44;7839220;31;39939;-79
2023/06/04 09:01:26;;;;;;;3.95;1.48;;;;;;;22.06;34.86;100190.84;7835432;31;38741;-80
2023/06/04 09:05:47;;;;;;;2.10;1.10;;;;;;;22.01;34.39;100194.66;7840093;31;36944;-80
2023/06/04 09:10:06;;;;;;;7.03;1.55;;;;;;;22.20;35.58;100185.03;7842296;31;39742;-80
2023/06/04 09:14:28;;;;;;;3.67;1.58;;;;;;;22.59;35.54;100180.06;7835130;31;39208;-80
2023/06/04 09:18:45;;;;;;;3.12;1.60;;;;;;;22.80;33.44;100180.81;7842135;31;37300;-80
2023/06/04 09:23:12;;;;;;;1.92;1.30;;;;;;;22.73;32.31;100186.13;7834387;31;36967;-80
2023/06/04 09:27:37;;;;;;;2.70;1.30;;;;;;;22.96;32.92;100183.75;7838010;31;39333;-80
2023/06/04 09:32:01;;;;;;;5.50;1.55;;;;;;;23.10;32.17;100186.22;7840532;31;41679;-80
2023/06/04 09:36:20;;;;;;;4.25;1.67;;;;;;;23.38;31.63;100182.72;7837845;31;38655;-79
2023/06/04 09:40:37;;;;;;;7.55;1.70;;;;;;;23.36;30.26;100185.84;7841342;31;36942;-81
2023/06/04 09:44:54;;;;;;;6.12;1.48;;;;;;;23.58;32.27;100184.56;7842198;31;39824;-79
2023/06/04 09:49:10;;;;;;;7.15;1.70;;;;;;;23.14;30.89;100184.34;7842196;31;40208;-77
2023/06/04 09:53:28;;;;;;;10.40;1.77;;;;;;;23.48;32.28;100187.81;7839998;31;37295;-78
2023/06/04 09:57:51;;;;;;;4.65;1.83;;;;;;;22.62;31.87;100193.28;7819682;31;37081;-80
2023/06/04 10:02:09;;;;;;;5.55;1.55;;;;;;;22.69;30.98;100185.19;7846122;31;37544;-76
2023/06/04 10:06:26;;;;;;;3.30;1.27;;;;;;;23.37;33.11;100186.66;7828979;31;42234;-78
2023/06/04 10:10:43;;;;;;;5.00;2.00;;;;;;;23.83;31.33;100187.31;7830932;31;38699;-78
2023/06/04 10:15:11;;;;;;;4.85;1.58;;;;;;;24.06;31.42;100190.41;7831802;31;37551;-78
2023/06/04 10:19:28;;;;;;;11.38;1.67;;;;;;;24.19;32.75;100183.59;7826492;31;39998;-77
2023/06/04 10:23:45;;;;;;;5.18;1.67;;;;;;;24.15;32.07;100188.25;7826048;31;40053;-79
2023/06/04 10:28:03;;;;;;;5.72;1.73;;;;;;;23.98;27.40;100189.37;7834201;31;37790;-79
2023/06/04 10:32:20;;;;;;;2.75;1.10;;;;;;;24.47;31.15;100188.34;7818421;32;36922;-79
2023/06/04 10:36:45;;;;;;;3.47;1.30;;;;;;;23.98;28.61;100194.94;7818522;32;39183;-81
2023/06/04 10:41:13;;;;;;;2.90;1.40;;;;;;;24.16;27.09;100191.84;7835114;31;40634;-79
2023/06/04 10:45:30;;;;;;;2.78;1.20;;;;;;;24.30;25.26;100183.91;7845449;31;37598;-78
2023/06/04 10:49:46;;;;;;;5.25;1.55;;;;;;;24.95;26.78;100177.28;7833629;31;36846;-78
2023/06/04 10:54:03;;;;;;;6.20;1.62;;;;;;;24.49;25.20;100174.06;7820755;32;39202;-78
2023/06/04 10:58:20;;;;;;;4.93;1.70;;;;;;;24.73;26.51;100181.50;7821158;31;40036;-78
2023/06/04 11:02:38;;;;;;;2.55;1.20;;;;;;;25.20;24.07;100177.06;7821336;32;38701;-78
2023/06/04 11:07:10;;;;;;;2.92;1.33;;;;;;;25.89;26.42;100166.31;7832889;31;37248;-79
2023/06/04 11:11:27;;;;;;;8.35;2.05;;;;;;;25.99;24.26;100162.16;7820287;32;39300;-68
2023/06/04 11:15:45;;;;;;;3.12;1.37;;;;;;;25.95;22.83;100169.66;7822277;31;40011;-78
2023/06/04 11:20:01;;;;;;;3.20;1.55;;;;;;;25.59;24.95;100168.84;7848487;31;38066;-78
2023/06/04 11:24:18;;;;;;;3.85;1.62;;;;;;;26.00;26.65;100166.56;7844999;31;36663;-79
2023/06/04 11:28:34;;;;;;;3.10;1.40;;;;;;;26.40;24.05;100162.56;7847532;31;39926;-79
2023/06/04 11:32:59;;;;;;;4.22;1.50;;;;;;;26.49;24.87;100154.78;7848429;31;39956;-79
2023/06/04 11:37:16;;;;;;;4.43;1.50;;;;;;;26.48;23.95;100153.13;7848503;31;38023;-79
2023/06/04 11:41:35;;;;;;;2.33;1.30;;;;;;;26.53;24.03;100161.22;7848623;31;37050;-77
2023/06/04 11:45:51;;;;;;;2.17;1.20;;;;;;;26.75;24.22;100164.41;7848346;31;39299;-77
2023/06/04 11:50:08;;;;;;;7.47;1.73;;;;;;;26.60;24.40;100158.56;7848523;31;40594;-78
2023/06/04 11:54:25;;;;;;;4.72;1.70;;;;;;;26.34;25.45;100161.25;7848273;31;39043;-77
2023/06/04 11:58:42;;;;;;;3.87;1.40;;;;;;;25.94;25.82;100156.81;7846774;31;36596;-79
2023/06/04 12:02:59;;;;;;;3.92;1.35;;;;;;;26.26;27.73;100159.50;7848075;31;39169;-79
2023/06/04 12:07:23;;;;;;;1.83;1.20;;;;;;;26.43;28.43;100161.81;7848363;31;39709;-79
2023/06/04 12:11:41;;;;;;;6.90;1.83;;;;;;;26.34;28.90;100164.88;7848705;31;37174;-77
2023/06/04 12:15:57;;;;;;;5.65;1.40;;;;;;;26.15;30.91;100170.47;7848195;31;38042;-80
2023/06/04 12:20:14;;;;;;;4.07;1.50;;;;;;;26.01;30.58;100166.22;7831445;31;39463;-80
2023/06/04 12:24:37;;;;;;;2.67;1.62;;;;;;;25.94;30.61;100163.28;7846679;31;39624;-79
2023/06/04 12:29:07;;;;;;;3.15;1.42;;;;;;;26.04;30.88;100168.28;7847765;31;38810;-79
2023/06/04 12:33:23;;;;;;;5.85;1.95;;;;;;;26.00;31.01;100163.78;7847924;31;37050;-80
2023/06/04 12:37:42;;;;;;;4.53;1.67;;;;;;;26.15;30.11;100160.09;7847261;31;39337;-79
2023/06/04 12:41:59;;;;;;;4.43;1.90;;;;;;;25.77;30.40;100161.69;7836730;31;39893;-79
2023/06/04 12:46:15;;;;;;;6.57;1.67;;;;;;;25.60;31.79;100164.91;7836323;31;37982;-79
2023/06/04 12:50:32;;;;;;;5.22;1.70;;;;;;;25.59;34.10;100168.84;7828022;31;36749;-79
2023/06/04 12:54:49;;;;;;;4.53;1.60;;;;;;;25.34;29.63;100162.72;7847751;31;39199;-80
2023/06/04 12:59:05;;;;;;;4.72;1.60;;;;;;;25.34;32.99;100162.72;7842622;31;40009;-81
2023/06/04 13:03:21;;;;;;;7.30;1.60;;;;;;;25.05;28.71;100157.22;7822029;31;38625;-80
2023/06/04 13:07:38;;;;;;;3.75;1.77;;;;;;;25.46;29.14;100163.41;7823580;31;36969;-79
2023/06/04 13:11:54;;;;;;;2.97;1.48;;;;;;;25.60;28.15;100159.31;7827323;31;39138;-79
2023/06/04 13:16:11;;;;;;;6.07;1.50;;;;;;;25.36;29.64;100158.38;7832902;31;40022;-80
2023/06/04 13:20:28;;;;;;;4.37;2.20;;;;;;;24.69;28.94;100156.31;7826012;31;38622;-78
2023/06/04 13:24:46;;;;;;;3.78;1.40;;;;;;;24.25;30.76;100163.84;7834124;31;36669;-78
2023/06/04 13:29:02;;;;;;;5.15;1.62;;;;;;;24.56;30.05;100157.56;7834863;31;40068;-77
2023/06/04 13:33:21;;;;;;;3.22;2.00;;;;;;;24.01;30.74;100162.81;7830522;31;40464;-78
2023/06/04 13:37:37;;;;;;;8.77;2.12;;;;;;;23.84;30.99;100155.53;7828559;31;36967;-80
2023/06/04 13:41:55;;;;;;;7.72;1.73;;;;;;;24.05;31.68;100155.34;7826059;31;36584;-80
2023/06/04 13:46:15;;;;;;;3.58;1.55;;;;;;;23.95;30.47;100155.84;7825595;31;40091;-78
2023/06/04 13:50:33;;;;;;;4.25;1.75;;;;;;;23.91;33.04;100150.19;7820454;31;40880;-81
2023/06/04 13:54:49;;;;;;;3.70;1.27;;;;;;;23.85;34.00;100154.38;7827075;31;37996;-79
2023/06/04 13:59:06;;;;;;;7.60;1.87;;;;;;;23.00;32.56;100165.19;7823093;31;36845;-78
2023/06/04 14:03:22;;;;;;;3.00;1.55;;;;;;;22.73;33.05;100168.63;7827100;31;39177;-78
2023/06/04 14:07:40;;;;;;;3.08;1.98;;;;;;;22.46;34.72;100163.38;7846515;31;40051;-78
2023/06/04 14:11:57;;;;;;;4.57;2.00;;;;;;;22.47;33.31;100161.41;7846720;31;37002;-77
2023/06/04 14:16:14;;;;;;;4.68;1.87;;;;;;;22.65;34.34;100165.63;7844296;31;37581;-78
2023/06/04 14:20:31;;;;;;;9.90;2.15;;;;;;;22.28;35.65;100165.53;7845972;31;40025;-79
2023/06/04 14:24:47;;;;;;;5.32;1.98;;;;;;;22.12;35.69;100165.31;7842206;31;39897;-79
2023/06/04 14:29:04;;;;;;;3.13;2.00;;;;;;;22.09;35.69;100162.41;7816325;31;823179;-75
2023/06/04 14:33:21;;;;;;;3.72;1.87;;;;;;;22.02;36.75;100156.59;7838916;31;37731;-79
2023/06/04 14:37:38;;;;;;;2.75;1.80;;;;;;;21.68;38.63;100164.88;7834285;31;39394;-80
2023/06/04 14:41:54;;;;;;;3.42;1.95;;;;;;;21.80;38.60;100171.63;7832796;31;39940;-86
2023/06/04 14:46:11;;;;;;;3.67;1.80;;;;;;;21.74;38.85;100171.03;7830897;31;37451;-85
2023/06/04 14:50:27;;;;;;;4.87;1.83;;;;;;;21.57;39.56;100158.09;7837521;31;37094;-86
2023/06/04 14:54:44;;;;;;;3.92;1.73;;;;;;;21.86;40.50;100159.97;7842061;31;38971;-83
2023/06/04 14:59:00;;;;;;;7.68;1.95;;;;;;;21.81;38.20;100159.37;7840700;31;40800;-84
2023/06/04 15:03:17;;;;;;;8.38;2.30;;;;;;;21.62;39.98;100155.09;7835901;31;39533;-83
2023/06/04 15:07:34;;;;;;;5.75;2.30;;;;;;;21.31;42.83;100156.25;7841423;31;36619;-83
2023/06/04 15:11:50;;;;;;;3.47;1.80;;;;;;;21.70;41.18;100154.25;7841429;31;40062;-84
2023/06/04 15:16:07;;;;;;;5.22;2.25;;;;;;;21.72;41.51;100160.25;7841665;31;39882;-83
2023/06/04 15:20:25;;;;;;;6.82;2.20;;;;;;;21.88;42.08;100141.03;7841331;31;38717;-83
2023/06/04 15:24:41;;;;;;;4.80;2.08;;;;;;;22.04;42.55;100143.19;7838116;31;37778;-84
2023/06/04 15:28:57;;;;;;;4.47;2.17;;;;;;;22.15;42.79;100144.38;7841199;31;39400;-84
2023/06/04 15:33:14;;;;;;;4.47;1.90;;;;;;;22.07;43.74;100134.16;7841524;31;40726;-83
2023/06/04 15:37:31;;;;;;;5.00;1.90;;;;;;;22.33;43.28;100145.03;7837359;31;38075;-83
2023/06/04 15:41:47;;;;;;;3.55;2.12;;;;;;;22.31;44.52;100139.81;7837323;31;36879;-82
2023/06/04 15:46:06;;;;;;;4.53;2.10;;;;;;;22.48;45.39;100138.03;7841970;31;39074;-85
2023/06/04 15:50:23;;;;;;;4.62;1.90;;;;;;;22.48;45.84;100135.25;7839427;31;39987;-85
2023/06/04 15:54:42;;;;;;;6.25;2.03;;;;;;;22.76;44.80;100129.06;7836882;31;38046;-84
2023/06/04 15:59:06;;;;;;;8.75;2.20;;;;;;;22.55;44.87;100131.91;7833654;31;36669;-85
2023/06/04 16:03:22;;;;;;;4.45;2.10;;;;;;;22.57;44.61;100132.37;7832221;31;39219;-86
2023/06/04 16:07:38;;;;;;;12.10;2.55;;;;;;;22.62;44.86;100130.19;7831224;31;39915;-85
2023/06/04 16:11:56;;;;;;;3.62;1.90;;;;;;;22.82;44.26;100125.69;7834536;31;38051;-84
2023/06/04 16:16:13;;;;;;;5.35;1.95;;;;;;;22.78;43.82;100119.19;7830976;31;36946;-83
2023/06/04 16:20:29;;;;;;;4.62;1.90;;;;;;;22.58;43.17;100125.69;7834383;31;39273;-84
2023/06/04 16:24:46;;;;;;;5.18;1.92;;;;;;;22.45;44.82;100114.53;7834091;31;40809;-84
2023/06/04 16:29:02;;;;;;;6.12;2.15;;;;;;;22.52;42.84;100115.94;7846284;31;38701;-84
2023/06/04 16:33:19;;;;;;;11.30;2.70;;;;;;;22.46;41.59;100130.03;7825963;31;35385;-83
2023/06/04 16:37:37;;;;;;;8.60;2.70;;;;;;;22.41;42.76;100130.25;7829917;31;39093;-82
2023/06/04 16:41:58;;;;;;;7.65;2.62;;;;;;;22.13;41.53;100130.84;7827706;31;39618;-82
2023/06/04 16:46:14;;;;;;;7.12;2.72;;;;;;;21.80;44.28;100139.16;7833268;31;38124;-82
2023/06/04 16:50:30;;;;;;;7.60;2.37;;;;;;;21.80;42.89;100135.53;7833218;31;37555;-83
2023/06/04 16:54:47;;;;;;;5.68;2.33;;;;;;;21.31;43.56;100138.81;7832474;31;40016;-82
2023/06/04 16:59:03;;;;;;;4.85;2.50;;;;;;;21.54;42.93;100131.00;7829250;31;41166;-84
2023/06/04 17:03:22;;;;;;;6.70;3.10;;;;;;;21.13;44.94;100127.03;7829022;31;38000;-84
2023/06/04 17:07:42;;;;;;;6.65;3.10;;;;;;;21.37;44.71;100115.28;7827917;31;36641;-86
2023/06/04 17:11:59;;;;;;;7.75;2.08;;;;;;;21.51;45.39;100117.84;7832277;31;39750;-87
2023/06/04 17:16:15;;;;;;;8.68;2.08;;;;;;;21.36;45.37;100111.69;7824470;31;40001;-88
2023/06/04 17:20:32;;;;;;;4.65;2.20;;;;;;;21.33;46.72;100112.34;7832922;31;38162;-85
2023/06/04 17:24:49;;;;;;;6.43;2.42;;;;;;;21.24;47.43;100111.63;7828259;31;37825;-84
2023/06/04 17:29:06;;;;;;;6.18;2.25;;;;;;;20.89;48.54;100106.28;7830458;31;40024;-85
2023/06/04 17:33:22;;;;;;;9.77;2.80;;;;;;;20.86;48.53;100109.69;7834957;31;39820;-86
2023/06/04 17:37:39;;;;;;;8.80;2.40;;;;;;;20.91;48.76;100115.06;7836490;31;38711;-86
2023/06/04 17:41:56;;;;;;;3.60;1.90;;;;;;;20.90;47.73;100107.06;7831385;31;36484;-85
2023/06/04 17:46:12;;;;;;;5.60;2.35;;;;;;;20.74;47.46;100109.59;7831711;31;39967;-82
2023/06/04 17:50:28;;;;;;;5.07;2.00;;;;;;;20.91;47.13;100098.44;7831321;31;39863;-82
2023/06/04 17:54:45;;;;;;;4.22;2.20;;;;;;;20.89;47.88;100106.28;7833994;31;37902;-84
2023/06/04 17:59:05;;;;;;;4.37;2.20;;;;;;;20.44;47.81;100109.53;7844282;31;36990;-83
2023/06/04 18:03:22;;;;;;;5.40;2.12;;;;;;;20.53;47.00;100110.28;7844703;31;39229;-83
2023/06/04 18:07:39;;;;;;;5.65;2.20;;;;;;;20.29;47.27;100113.62;7836104;31;39858;-85
2023/06/04 18:11:57;;;;;;;7.80;2.45;;;;;;;20.32;47.66;100118.50;7840582;31;37931;-85
2023/06/04 18:16:14;;;;;;;5.18;2.20;;;;;;;20.11;48.31;100112.84;7837554;31;36506;-83
2023/06/04 18:20:31;;;;;;;4.95;1.80;;;;;;;20.16;48.29;100123.75;7846552;31;39351;-83
2023/06/04 18:24:47;;;;;;;3.92;2.25;;;;;;;20.24;48.11;100117.38;7842832;31;39967;-82
2023/06/04 18:29:07;;;;;;;4.70;2.12;;;;;;;20.12;48.33;100110.91;7818533;32;38130;-81
2023/06/04 18:33:24;;;;;;;4.05;1.92;;;;;;;20.10;48.38;100124.25;7818353;32;36795;-83
2023/06/04 18:37:42;;;;;;;5.45;2.35;;;;;;;20.10;48.15;100119.53;7828083;31;39268;-83
2023/06/04 18:42:01;;;;;;;6.25;2.28;;;;;;;20.01;48.30;100118.72;7827450;31;40854;-81
2023/06/04 18:46:18;;;;;;;3.87;2.33;;;;;;;19.96;48.37;100121.66;7829991;31;38516;-80
2023/06/04 18:50:34;;;;;;;5.35;2.12;;;;;;;20.12;47.79;100122.78;7828468;31;37132;-81
2023/06/04 18:54:51;;;;;;;5.45;2.20;;;;;;;20.09;47.76;100131.72;7829412;31;40049;-85
2023/06/04 18:59:07;;;;;;;8.63;2.35;;;;;;;20.18;47.77;100137.25;7827495;31;40544;-83
2023/06/04 19:03:24;;;;;;;3.97;2.17;;;;;;;20.14;47.98;100136.28;7828566;31;37961;-85
2023/06/04 19:07:40;;;;;;;3.62;2.05;;;;;;;20.30;47.88;100144.88;7830757;31;37675;-83
2023/06/04 19:11:57;;;;;;;3.92;2.25;;;;;;;20.33;48.61;100150.56;7833505;31;40013;-83
2023/06/04 19:16:15;;;;;;;5.97;2.50;;;;;;;20.36;48.63;100149.13;7831067;31;40597;-84
2023/06/04 19:20:34;;;;;;;8.38;2.45;;;;;;;20.31;49.26;100146.53;7829638;31;38005;-84
2023/06/04 19:24:51;;;;;;;8.38;2.58;;;;;;;20.26;49.57;100151.09;7833027;31;36006;-84
2023/06/04 19:29:08;;;;;;;3.60;2.20;;;;;;;20.16;49.76;100145.91;7831469;31;39751;-85
2023/06/04 19:33:26;;;;;;;5.93;2.47;;;;;;;20.23;48.90;100137.91;7825270;31;39668;-84
2023/06/04 19:37:42;;;;;;;5.55;2.42;;;;;;;20.01;50.02;100149.16;7831958;31;37946;-83
2023/06/04 19:41:59;;;;;;;6.22;2.20;;;;;;;20.09;50.34;100145.56;7830492;31;36959;-83
2023/06/04 19:46:15;;;;;;;5.60;2.40;;;;;;;20.24;49.95;100147.81;7832794;31;39189;-84
2023/06/04 19:50:35;;;;;;;3.67;2.08;;;;;;;20.04;50.46;100154.03;7830811;31;40679;-84
2023/06/04 19:54:51;;;;;;;4.50;2.25;;;;;;;20.18;49.93;100154.69;7831282;31;38853;-83